Reagan, TN (38368)

4:40 AM CST on November 27, 2014 (GMT -0600)
ParsonsWeather.com | Change Station
CLOSE
Current Station
Personal Weather Station
Location: Parsons, TN
Elevation: 494 ft
Nearby Weather Stations

Elev 494 ft 35.65 °N, 88.13 °W | Updated 4 seconds ago

Overcast
Overcast
38.8 °F
Feels Like 39 °F
N
2.0
Wind Variable Wind from NW
Gusts 11.0 mph

Today
High -- | Low -- °F
--% Chance of Precip.
Yesterday
High -- | Low -- °F
Precip. -- in
6:40 AM 4:41 PM
Waxing Crescent, 28% visible
Pressure 30.29 in
Visibility 10.0 miles
Clouds Mostly Cloudy 2100 ft
Overcast 2900 ft
Windchill 39 °F
Dew Point 31 °F
Humidity 74%
Rainfall 0.00 in
Snow Depth Not available.
UV 0 out of 12
Pollen .30 out of 12
Air Quality Not available.
Flu Activity Not available.
METAR KMKL 270953Z AUTO 33011G20KT 10SM BKN021 OVC029 04/00 A3029 RMK AO2 SLP257 T00440000

More Conditions Fewer Conditions

Pressure 30.29 in
Visibility 10.0 miles
Clouds Mostly Cloudy 2100 ft
Overcast 2900 ft
Windchill 39 °F
Dew Point 31 °F
Humidity 74%
Rainfall 0.00 in
Snow Depth Not available.
UV 0 out of 12
Pollen .30 out of 12
Air Quality Not available.
Flu Activity Not available.
METAR KMKL 270953Z AUTO 33011G20KT 10SM BKN021 OVC029 04/00 A3029 RMK AO2 SLP257 T00440000

More Conditions Fewer Conditions

10-Day Weather Forecast

Almanac

Astronomy

Nov. 27, 2014 Rise Set
Actual Time
Civil Twilight
Nautical Twilight
Astronomical Twilight
Moon
Length of Visible Light
Length of Day
Tomorrow will be .
, % of the Moon is Illuminated

Today's Extremes

State Highs State Lows

Community

WunderPhotos

Upload Photos

1,773,968 photos uploaded!

WunderBlogs® & News

Nearby

Air Quality

  Air Quality AQ Index Pollutant
Not available.

Snow Depth

Station Depth Elevation

Earthquake Activity

City Distance Mag. Time & Date
Minimum magnitude displayed is 2.5.

Coastal Water Temperatures

Place Temperature

Nearby Weather Stations